createdAt,value
2017-09-19T00:00:22.417Z,99.90
2017-09-19T00:02:54.750Z,99.90
2017-09-19T00:05:27.094Z,99.90
2017-09-19T00:07:59.316Z,99.90
2017-09-19T00:10:31.660Z,99.90
2017-09-19T00:13:03.818Z,99.90
2017-09-19T00:15:36.239Z,99.90
2017-09-19T00:18:08.572Z,99.90
2017-09-19T00:20:40.876Z,99.90
2017-09-19T00:23:13.005Z,99.90
2017-09-19T00:25:45.948Z,99.90
2017-09-19T00:28:18.217Z,99.90
2017-09-19T00:30:50.665Z,99.90
2017-09-19T00:33:23.102Z,99.90
2017-09-19T00:35:55.698Z,99.90
2017-09-19T00:38:28.108Z,99.90
2017-09-19T00:41:00.448Z,99.90
2017-09-19T00:43:32.774Z,99.90
2017-09-19T00:46:05.040Z,99.90
2017-09-19T00:48:37.158Z,99.90
2017-09-19T00:51:09.513Z,99.90
2017-09-19T00:53:41.748Z,99.90
2017-09-19T00:56:14.813Z,99.90
2017-09-19T00:58:47.159Z,99.90
2017-09-19T01:01:19.426Z,99.90
2017-09-19T01:03:51.937Z,99.90
2017-09-19T01:06:24.161Z,99.90
2017-09-19T01:08:56.393Z,99.90
2017-09-19T01:11:28.562Z,99.90
2017-09-19T01:14:00.817Z,99.90
2017-09-19T01:16:33.024Z,99.90
2017-09-19T01:19:05.389Z,99.90
2017-09-19T01:21:38.305Z,99.90
2017-09-19T01:24:10.719Z,99.90
2017-09-19T01:26:43.777Z,99.90
2017-09-19T01:29:16.029Z,99.90
2017-09-19T01:31:48.383Z,99.90
2017-09-19T01:34:21.429Z,99.90
2017-09-19T01:36:53.616Z,99.90
2017-09-19T01:39:25.889Z,99.90
2017-09-19T01:41:58.794Z,99.90
2017-09-19T01:44:31.024Z,99.90
2017-09-19T01:47:04.105Z,99.90
2017-09-19T01:49:37.271Z,99.90
2017-09-19T01:52:09.490Z,99.90
2017-09-19T01:54:41.754Z,99.90
2017-09-19T01:57:13.989Z,99.90
2017-09-19T01:59:46.217Z,99.90
2017-09-19T02:02:18.429Z,99.90
2017-09-19T02:04:50.585Z,99.90
2017-09-19T02:07:22.915Z,99.90
2017-09-19T02:09:55.164Z,99.90
2017-09-19T02:12:27.381Z,99.90
2017-09-19T02:14:59.690Z,99.90
2017-09-19T02:19:54.706Z,99.90
2017-09-19T02:22:27.021Z,99.90
2017-09-19T02:24:59.255Z,99.90
2017-09-19T02:27:31.641Z,99.90
2017-09-19T02:30:03.895Z,99.90
2017-09-19T02:32:35.989Z,99.90
2017-09-19T02:35:08.349Z,99.90
2017-09-19T02:37:41.216Z,99.90
2017-09-19T02:40:14.377Z,99.90
2017-09-19T02:42:46.533Z,99.90
2017-09-19T02:45:18.711Z,99.90
2017-09-19T02:47:51.068Z,99.90
2017-09-19T02:50:23.498Z,99.90
2017-09-19T02:52:55.685Z,99.90
2017-09-19T02:55:28.205Z,99.70
2017-09-19T02:58:01.425Z,99.90
2017-09-19T03:00:33.649Z,99.90
2017-09-19T03:03:06.017Z,98.60
2017-09-19T03:05:38.329Z,99.90
2017-09-19T03:08:10.528Z,99.40
2017-09-19T03:10:42.781Z,98.50
2017-09-19T03:13:15.176Z,98.40
2017-09-19T03:15:47.682Z,97.80
2017-09-19T03:18:20.105Z,98.40
2017-09-19T03:20:52.347Z,97.50
2017-09-19T03:23:24.582Z,98.50
2017-09-19T03:25:57.501Z,98.50
2017-09-19T03:28:29.946Z,98.30
2017-09-19T03:31:02.095Z,99.20
2017-09-19T03:33:34.220Z,99.10
2017-09-19T03:36:06.422Z,98.80
2017-09-19T03:38:38.686Z,98.60
2017-09-19T03:41:11.142Z,98.60
2017-09-19T03:43:43.481Z,97.90
2017-09-19T03:46:15.640Z,99.10
2017-09-19T03:48:47.966Z,99.40
2017-09-19T03:51:20.109Z,99.90
2017-09-19T03:53:52.370Z,99.90
2017-09-19T03:56:24.634Z,99.90
2017-09-19T03:58:56.924Z,99.90
2017-09-19T04:01:29.387Z,99.90
2017-09-19T04:04:01.772Z,99.90
2017-09-19T04:06:33.975Z,99.90
2017-09-19T04:09:06.329Z,99.90
2017-09-19T04:11:38.633Z,99.90
2017-09-19T04:14:11.023Z,99.90
2017-09-19T04:16:43.305Z,99.90
2017-09-19T04:19:15.679Z,99.90
2017-09-19T04:21:47.906Z,99.90
2017-09-19T04:24:20.112Z,99.90
2017-09-19T04:26:52.326Z,99.90
2017-09-19T04:29:24.744Z,99.90
2017-09-19T04:31:56.910Z,99.90
2017-09-19T04:34:29.242Z,99.90
2017-09-19T04:37:02.245Z,99.90
2017-09-19T04:39:34.497Z,99.90
2017-09-19T04:42:06.837Z,99.90
2017-09-19T04:44:39.226Z,99.90
2017-09-19T04:47:11.588Z,99.90
2017-09-19T04:49:43.866Z,99.90
2017-09-19T04:52:16.263Z,99.90
2017-09-19T04:54:48.618Z,99.90
2017-09-19T04:57:20.842Z,99.90
2017-09-19T04:59:53.207Z,99.90
2017-09-19T05:02:25.577Z,99.90
2017-09-19T05:04:57.980Z,99.90
2017-09-19T05:07:30.154Z,99.90
2017-09-19T05:10:02.442Z,99.90
2017-09-19T05:12:34.691Z,99.90
2017-09-19T05:15:06.822Z,99.90
2017-09-19T05:17:39.874Z,99.90
2017-09-19T05:20:12.252Z,99.90
2017-09-19T05:22:44.604Z,99.90
2017-09-19T05:25:17.078Z,99.90
2017-09-19T05:27:49.279Z,99.90
2017-09-19T05:30:22.299Z,99.90
2017-09-19T05:32:54.551Z,99.90
2017-09-19T05:35:27.034Z,99.90
2017-09-19T05:37:59.436Z,99.90
2017-09-19T05:40:31.639Z,99.90
2017-09-19T05:43:04.573Z,99.90
2017-09-19T05:45:37.456Z,99.90
2017-09-19T05:48:09.865Z,99.90
2017-09-19T05:50:42.220Z,99.90
2017-09-19T05:53:15.429Z,99.90
2017-09-19T05:55:47.782Z,99.90
2017-09-19T05:58:20.128Z,99.90
2017-09-19T06:00:53.242Z,96.80
2017-09-19T06:03:25.588Z,97.60
2017-09-19T06:05:57.910Z,92.10
2017-09-19T06:08:30.301Z,90.90
2017-09-19T06:11:02.515Z,86.50
2017-09-19T06:13:35.450Z,78.90
2017-09-19T06:16:07.776Z,78.90
2017-09-19T06:18:40.005Z,78.80
2017-09-19T06:21:12.344Z,80.00
2017-09-19T06:23:44.672Z,79.10
2017-09-19T06:26:16.997Z,76.90
2017-09-19T06:28:49.341Z,82.00
2017-09-19T06:31:21.641Z,89.20
2017-09-19T06:33:54.608Z,94.30
2017-09-19T06:36:26.898Z,94.40
2017-09-19T06:38:59.188Z,96.20
2017-09-19T06:41:31.538Z,96.40
2017-09-19T06:44:04.467Z,96.70
2017-09-19T06:46:37.454Z,95.20
2017-09-19T06:49:09.818Z,95.20
2017-09-19T06:51:42.204Z,93.40
2017-09-19T06:54:14.485Z,84.20
2017-09-19T06:56:46.738Z,76.60
2017-09-19T06:59:19.186Z,67.20
2017-09-19T07:01:51.384Z,65.60
2017-09-19T07:04:23.804Z,59.40
2017-09-19T07:06:56.065Z,57.70
2017-09-19T07:09:29.033Z,55.90
2017-09-19T07:12:01.210Z,56.00
2017-09-19T07:14:33.658Z,55.50
2017-09-19T07:17:06.778Z,51.70
2017-09-19T07:19:39.141Z,51.70
2017-09-19T07:22:12.181Z,51.20
2017-09-19T07:24:45.240Z,50.40
2017-09-19T07:27:17.468Z,50.40
2017-09-19T07:29:49.878Z,48.60
2017-09-19T07:32:22.464Z,47.50
2017-09-19T07:34:54.866Z,49.60
2017-09-19T07:37:27.261Z,48.00
2017-09-19T07:39:59.582Z,46.70
2017-09-19T07:42:31.865Z,46.20
2017-09-19T07:45:03.982Z,47.20
2017-09-19T07:47:36.301Z,45.90
2017-09-19T07:50:08.713Z,41.70
2017-09-19T07:52:40.974Z,44.10
2017-09-19T07:55:13.306Z,40.60
2017-09-19T07:57:45.640Z,41.40
2017-09-19T08:00:18.061Z,42.20
2017-09-19T08:02:50.313Z,41.20
2017-09-19T08:05:22.709Z,42.00
2017-09-19T08:07:54.881Z,43.10
2017-09-19T08:10:27.269Z,41.60
2017-09-19T08:12:59.610Z,39.10
2017-09-19T08:15:31.905Z,38.90
2017-09-19T08:18:04.317Z,37.50
2017-09-19T08:20:36.485Z,38.70
2017-09-19T08:23:08.931Z,38.00
2017-09-19T08:25:41.234Z,37.00
2017-09-19T08:28:13.512Z,35.20
2017-09-19T08:30:45.897Z,35.70
2017-09-19T08:33:18.089Z,34.90
2017-09-19T08:35:50.485Z,33.10
2017-09-19T08:38:22.601Z,34.20
2017-09-19T08:40:54.813Z,35.90
2017-09-19T08:43:27.109Z,37.20
2017-09-19T08:45:59.545Z,36.10
2017-09-19T08:48:32.199Z,38.40
2017-09-19T08:51:04.592Z,37.30
2017-09-19T08:53:37.737Z,33.10
2017-09-19T08:56:10.012Z,33.20
2017-09-19T08:58:42.290Z,32.60
2017-09-19T09:01:14.546Z,32.00
2017-09-19T09:03:46.870Z,30.70
2017-09-19T09:06:20.000Z,37.60
2017-09-19T09:08:52.874Z,37.00
2017-09-19T09:11:25.019Z,37.10
2017-09-19T09:13:57.320Z,40.70
2017-09-19T09:16:29.639Z,40.50
2017-09-19T09:19:01.717Z,38.10
2017-09-19T09:21:33.954Z,37.80
2017-09-19T09:24:06.352Z,37.10
2017-09-19T09:26:38.678Z,34.90
2017-09-19T09:29:10.936Z,33.50
2017-09-19T09:31:44.054Z,34.90
2017-09-19T09:34:16.425Z,35.00
2017-09-19T09:36:48.625Z,33.90
2017-09-19T09:39:20.814Z,34.10
2017-09-19T09:41:53.197Z,34.80
2017-09-19T09:44:25.604Z,34.60
2017-09-19T09:46:58.010Z,34.40
2017-09-19T09:49:30.373Z,33.90
2017-09-19T09:52:03.289Z,34.90
2017-09-19T09:54:35.533Z,35.00
2017-09-19T09:57:07.834Z,38.70
2017-09-19T09:59:40.338Z,39.70
2017-09-19T10:02:12.637Z,35.80
2017-09-19T10:04:44.945Z,40.40
2017-09-19T10:07:17.329Z,41.90
2017-09-19T10:09:49.649Z,41.00
2017-09-19T10:12:22.758Z,42.70
2017-09-19T10:14:55.801Z,39.70
2017-09-19T10:17:28.178Z,39.70
2017-09-19T10:20:00.473Z,37.50
2017-09-19T10:22:32.937Z,38.50
2017-09-19T10:25:05.342Z,44.50
2017-09-19T10:27:38.373Z,42.30
2017-09-19T10:30:11.554Z,40.10
2017-09-19T10:32:43.738Z,40.20
2017-09-19T10:35:16.075Z,38.10
2017-09-19T10:37:48.452Z,36.90
2017-09-19T10:40:20.760Z,41.80
2017-09-19T10:42:53.173Z,38.90
2017-09-19T10:45:25.614Z,37.40
2017-09-19T10:47:58.146Z,34.90
2017-09-19T10:50:30.394Z,32.50
2017-09-19T10:53:02.793Z,35.70
2017-09-19T10:55:35.900Z,34.50
2017-09-19T10:58:09.048Z,35.60
2017-09-19T11:00:41.469Z,35.60
2017-09-19T11:03:13.714Z,34.70
2017-09-19T11:05:45.913Z,36.10
2017-09-19T11:08:18.339Z,36.00
2017-09-19T11:10:50.666Z,32.30
2017-09-19T11:13:23.063Z,30.90
2017-09-19T11:15:55.189Z,33.90
2017-09-19T11:18:27.653Z,35.40
2017-09-19T11:21:00.042Z,32.20
2017-09-19T11:23:32.312Z,32.10
2017-09-19T11:26:04.701Z,30.80
2017-09-19T11:28:37.097Z,31.80
2017-09-19T11:31:09.484Z,34.00
2017-09-19T11:33:41.859Z,33.20
2017-09-19T11:36:13.974Z,33.80
2017-09-19T11:38:46.436Z,32.50
2017-09-19T11:41:18.753Z,34.90
2017-09-19T11:43:51.084Z,37.00
2017-09-19T11:46:24.300Z,40.00
2017-09-19T11:48:56.438Z,40.00
2017-09-19T11:51:28.809Z,39.70
2017-09-19T11:54:02.084Z,33.90
2017-09-19T11:56:34.210Z,33.80
2017-09-19T11:59:07.160Z,35.50
2017-09-19T12:01:39.305Z,35.50
2017-09-19T12:04:11.849Z,37.50
2017-09-19T12:06:44.315Z,36.80
2017-09-19T12:09:16.709Z,35.10
2017-09-19T12:11:49.096Z,32.50
2017-09-19T12:14:21.312Z,32.10
2017-09-19T12:16:53.746Z,34.20
2017-09-19T12:19:26.060Z,37.80
2017-09-19T12:21:58.437Z,39.70
2017-09-19T12:24:31.053Z,38.90
2017-09-19T12:27:03.273Z,39.50
2017-09-19T12:29:35.777Z,40.60
2017-09-19T12:32:08.810Z,44.20
2017-09-19T12:34:41.162Z,44.10
2017-09-19T12:37:13.573Z,44.80
2017-09-19T12:39:45.885Z,43.50
2017-09-19T12:42:18.057Z,39.00
2017-09-19T12:44:50.344Z,38.40
2017-09-19T12:47:22.774Z,39.30
2017-09-19T12:49:55.722Z,38.60
2017-09-19T12:52:27.966Z,38.60
2017-09-19T12:55:00.111Z,36.00
2017-09-19T12:57:34.123Z,32.70
2017-09-19T13:00:06.398Z,33.10
2017-09-19T13:02:38.771Z,33.40
2017-09-19T13:05:11.322Z,33.80
2017-09-19T13:07:43.610Z,32.40
2017-09-19T13:10:15.907Z,35.50
2017-09-19T13:12:48.229Z,34.20
2017-09-19T13:15:20.528Z,35.00
2017-09-19T13:17:52.993Z,34.50
2017-09-19T13:20:25.240Z,36.10
2017-09-19T13:22:58.311Z,39.30
2017-09-19T13:25:31.321Z,41.10
2017-09-19T13:28:03.766Z,40.30
2017-09-19T13:30:36.171Z,40.00
2017-09-19T13:33:20.867Z,40.30
2017-09-19T13:35:53.233Z,41.90
2017-09-19T13:38:25.582Z,41.40
2017-09-19T13:40:58.040Z,41.40
2017-09-19T13:43:30.455Z,42.00
2017-09-19T13:46:02.757Z,42.20
2017-09-19T13:48:34.927Z,43.30
2017-09-19T13:51:07.337Z,43.80
2017-09-19T13:53:39.582Z,44.80
2017-09-19T13:56:12.030Z,45.50
2017-09-19T13:58:44.355Z,44.90
2017-09-19T14:01:16.680Z,44.10
2017-09-19T14:03:48.896Z,43.80
2017-09-19T14:06:21.284Z,44.10
2017-09-19T14:08:53.632Z,43.60
2017-09-19T14:11:26.044Z,44.10
2017-09-19T14:13:58.460Z,44.80
2017-09-19T14:16:30.756Z,45.40
2017-09-19T14:19:03.026Z,44.80
2017-09-19T14:21:35.176Z,44.10
2017-09-19T14:24:07.341Z,43.80
2017-09-19T14:26:39.572Z,43.90
2017-09-19T14:29:11.817Z,43.20
2017-09-19T14:31:44.957Z,42.60
2017-09-19T14:34:17.981Z,43.00
2017-09-19T14:36:50.312Z,42.80
2017-09-19T14:39:22.704Z,42.90
2017-09-19T14:41:54.973Z,43.00
2017-09-19T14:44:27.281Z,43.60
2017-09-19T14:46:59.461Z,43.90
2017-09-19T14:49:31.661Z,43.30
2017-09-19T14:52:04.046Z,44.60
2017-09-19T14:54:37.062Z,46.90
2017-09-19T14:57:10.997Z,46.90
2017-09-19T14:59:43.146Z,47.80
2017-09-19T15:02:15.529Z,48.40
2017-09-19T15:04:48.096Z,48.70
2017-09-19T15:07:20.832Z,48.30
2017-09-19T15:09:53.177Z,49.40
2017-09-19T15:12:25.458Z,50.30
2017-09-19T15:14:57.757Z,50.10
2017-09-19T15:17:30.166Z,51.50
2017-09-19T15:20:02.467Z,51.10
2017-09-19T15:22:34.673Z,52.00
2017-09-19T15:25:13.777Z,51.80
2017-09-19T15:27:46.064Z,51.60
2017-09-19T15:30:18.643Z,51.70
2017-09-19T15:32:51.705Z,52.30
2017-09-19T15:35:23.966Z,52.30
2017-09-19T15:37:56.787Z,52.70
2017-09-19T15:40:29.235Z,53.50
2017-09-19T15:43:01.623Z,53.40
2017-09-19T15:45:35.129Z,54.20
2017-09-19T15:48:07.676Z,54.20
2017-09-19T15:50:40.716Z,55.30
2017-09-19T15:53:13.027Z,55.40
2017-09-19T15:55:45.437Z,55.60
2017-09-19T15:58:17.721Z,55.70
2017-09-19T16:00:50.141Z,56.10
2017-09-19T16:03:22.434Z,56.20
2017-09-19T16:05:54.789Z,56.20
2017-09-19T16:08:27.335Z,56.20
2017-09-19T16:10:59.774Z,56.00
2017-09-19T16:13:32.405Z,56.30
2017-09-19T16:16:05.129Z,56.50
2017-09-19T16:18:37.317Z,57.10
2017-09-19T16:21:10.628Z,56.90
2017-09-19T16:23:42.977Z,57.10
2017-09-19T16:26:16.053Z,58.40
2017-09-19T16:28:49.309Z,57.80
2017-09-19T16:31:21.597Z,57.60
2017-09-19T16:33:53.886Z,58.20
2017-09-19T16:36:26.137Z,59.50
2017-09-19T16:38:58.747Z,59.10
2017-09-19T16:41:31.575Z,59.40
2017-09-19T16:44:04.177Z,59.40
2017-09-19T16:46:37.101Z,60.40
2017-09-19T16:49:09.692Z,60.50
2017-09-19T16:51:42.046Z,61.20
2017-09-19T16:54:14.356Z,61.30
2017-09-19T16:56:47.031Z,61.70
2017-09-19T16:59:19.354Z,62.20
2017-09-19T17:01:59.393Z,63.00
2017-09-19T17:04:31.682Z,63.10
2017-09-19T17:07:04.115Z,63.40
2017-09-19T17:09:36.473Z,63.60
2017-09-19T17:12:08.703Z,64.80
2017-09-19T17:14:40.941Z,64.20
2017-09-19T17:17:14.378Z,64.20
2017-09-19T17:19:46.945Z,63.50
2017-09-19T17:22:19.460Z,63.10
2017-09-19T17:24:51.980Z,64.20
2017-09-19T17:27:24.297Z,63.60
2017-09-19T17:29:56.686Z,64.90
2017-09-19T17:32:29.922Z,64.70
2017-09-19T17:35:03.300Z,65.10
2017-09-19T17:37:36.044Z,65.10
2017-09-19T17:40:08.332Z,65.90
2017-09-19T17:42:41.188Z,66.30
2017-09-19T17:45:13.587Z,66.20
2017-09-19T17:47:46.015Z,65.90
2017-09-19T17:50:19.475Z,66.40
2017-09-19T17:52:52.337Z,66.30
2017-09-19T17:55:24.851Z,66.70
2017-09-19T17:57:57.149Z,67.60
2017-09-19T18:00:29.581Z,68.10
2017-09-19T18:03:02.405Z,67.20
2017-09-19T18:05:35.251Z,68.30
2017-09-19T18:08:07.852Z,70.70
2017-09-19T18:10:40.622Z,70.70
2017-09-19T18:13:13.031Z,69.50
2017-09-19T18:15:45.437Z,68.90
2017-09-19T18:18:17.746Z,67.90
2017-09-19T18:20:50.105Z,69.90
2017-09-19T18:23:22.413Z,71.40
2017-09-19T18:25:54.799Z,71.60
2017-09-19T18:28:27.027Z,72.40
2017-09-19T18:31:00.326Z,73.50
2017-09-19T18:33:33.825Z,73.50
2017-09-19T18:36:06.432Z,73.90
2017-09-19T18:38:39.162Z,74.40
2017-09-19T18:41:11.983Z,74.50
2017-09-19T18:43:45.033Z,75.00
2017-09-19T18:46:17.684Z,75.10
2017-09-19T18:48:50.185Z,76.00
2017-09-19T18:51:22.534Z,76.10
2017-09-19T18:53:54.898Z,76.20
2017-09-19T18:56:27.073Z,76.40
2017-09-19T18:58:59.354Z,76.50
2017-09-19T19:01:31.514Z,76.70
2017-09-19T19:04:03.854Z,76.50
2017-09-19T19:06:36.232Z,77.20
2017-09-19T19:09:09.052Z,77.60
2017-09-19T19:11:41.522Z,78.60
2017-09-19T19:14:13.957Z,79.00
2017-09-19T19:16:46.391Z,78.10
2017-09-19T19:19:18.698Z,78.30
2017-09-19T19:21:50.950Z,77.90
2017-09-19T19:24:23.206Z,78.00
2017-09-19T19:26:55.497Z,78.50
2017-09-19T19:29:27.905Z,79.20
2017-09-19T19:32:00.282Z,79.30
2017-09-19T19:34:32.568Z,80.00
2017-09-19T19:37:05.573Z,79.90
2017-09-19T19:39:37.898Z,79.90
2017-09-19T19:42:10.235Z,79.80
2017-09-19T19:44:42.537Z,80.00
2017-09-19T19:47:14.937Z,80.00
2017-09-19T19:49:47.636Z,80.00
2017-09-19T19:52:20.137Z,80.00
2017-09-19T19:54:52.612Z,80.20
2017-09-19T19:57:19.737Z,80.00
2017-09-19T19:59:51.934Z,81.00
2017-09-19T20:02:24.337Z,81.60
2017-09-19T20:04:56.690Z,82.50
2017-09-19T20:07:29.144Z,83.10
2017-09-19T20:10:02.381Z,83.80
2017-09-19T20:12:35.605Z,83.90
2017-09-19T20:15:08.041Z,83.90
2017-09-19T20:17:41.456Z,84.40
2017-09-19T20:20:14.475Z,84.40
2017-09-19T20:22:47.805Z,85.40
2017-09-19T20:25:20.214Z,85.40
2017-09-19T20:27:52.616Z,86.20
2017-09-19T20:30:24.861Z,86.60
2017-09-19T20:32:57.634Z,87.00
2017-09-19T20:35:31.001Z,88.90
2017-09-19T20:38:04.054Z,89.70
2017-09-19T20:40:36.298Z,89.70
2017-09-19T20:43:10.802Z,90.70
2017-09-19T20:45:43.770Z,90.40
2017-09-19T20:48:16.798Z,90.80
2017-09-19T20:50:49.149Z,90.80
2017-09-19T20:53:21.867Z,91.40
2017-09-19T20:55:54.181Z,92.70
2017-09-19T20:58:27.199Z,93.00
2017-09-19T21:00:59.617Z,93.00
2017-09-19T21:03:38.034Z,92.70
2017-09-19T21:06:16.556Z,93.40
2017-09-19T21:08:54.938Z,93.20
2017-09-19T21:11:33.546Z,92.60
2017-09-19T21:14:11.751Z,92.10
2017-09-19T21:16:51.150Z,91.70
2017-09-19T21:19:26.357Z,91.70
2017-09-19T21:21:59.641Z,91.60
2017-09-19T21:24:31.938Z,91.60
2017-09-19T21:27:04.162Z,91.70
2017-09-19T21:29:36.552Z,91.50
2017-09-19T21:32:08.833Z,91.90
2017-09-19T21:34:41.736Z,91.50
2017-09-19T21:37:13.954Z,91.90
2017-09-19T21:39:46.412Z,92.20
2017-09-19T21:42:18.861Z,92.60
2017-09-19T21:44:51.369Z,93.00
2017-09-19T21:47:23.598Z,93.40
2017-09-19T21:49:56.053Z,93.30
2017-09-19T21:52:28.952Z,94.70
2017-09-19T21:55:01.213Z,93.90
2017-09-19T21:57:33.497Z,95.10
2017-09-19T22:00:05.906Z,95.40
2017-09-19T22:02:39.100Z,96.90
2017-09-19T22:05:11.425Z,96.90
2017-09-19T22:07:44.524Z,96.70
2017-09-19T22:10:16.887Z,97.20
2017-09-19T22:12:49.262Z,97.10
2017-09-19T22:15:21.664Z,97.70
2017-09-19T22:17:54.007Z,98.40
2017-09-19T22:20:26.229Z,98.10
2017-09-19T22:22:58.563Z,98.70
2017-09-19T22:25:31.523Z,98.70
2017-09-19T22:28:03.662Z,98.80
2017-09-19T22:30:36.125Z,98.20
2017-09-19T22:33:08.510Z,98.80
2017-09-19T22:35:40.686Z,99.70
2017-09-19T22:38:13.021Z,99.90
2017-09-19T22:40:46.273Z,99.90
2017-09-19T22:43:18.686Z,99.90
2017-09-19T22:45:50.897Z,99.90
2017-09-19T22:48:23.137Z,99.90
2017-09-19T22:50:55.471Z,99.90
2017-09-19T22:53:28.001Z,99.90
2017-09-19T22:56:00.395Z,99.90
2017-09-19T22:58:33.428Z,99.90
2017-09-19T23:01:05.737Z,99.90
2017-09-19T23:03:38.028Z,99.90
2017-09-19T23:06:10.254Z,99.90
2017-09-19T23:08:42.510Z,99.90
2017-09-19T23:11:14.722Z,99.90
2017-09-19T23:13:47.297Z,99.90
2017-09-19T23:16:19.692Z,99.90
2017-09-19T23:18:52.016Z,99.90
2017-09-19T23:21:24.442Z,99.90
2017-09-19T23:23:57.049Z,99.90
2017-09-19T23:26:29.410Z,99.90
2017-09-19T23:29:01.622Z,99.90
2017-09-19T23:31:34.005Z,99.90
2017-09-19T23:34:06.466Z,99.90
2017-09-19T23:36:39.529Z,99.90
2017-09-19T23:39:12.522Z,99.90
2017-09-19T23:41:45.431Z,99.90
2017-09-19T23:44:17.989Z,99.90
2017-09-19T23:46:50.159Z,99.90
2017-09-19T23:49:22.528Z,99.90
2017-09-19T23:51:54.853Z,99.90
2017-09-19T23:54:27.516Z,99.90
2017-09-19T23:56:59.925Z,99.90
2017-09-19T23:59:32.228Z,99.90
